sensor_id;sensor_type;location;lat;lon;timestamp;pressure;altitude;pressure_sealevel;temperature;humidity
58955;BME280;45815;52.334;5.024;2023-04-08T00:01:39;102344.97;;;8.77;100.00
58955;BME280;45815;52.334;5.024;2023-04-08T00:04:04;102346.31;;;8.69;100.00
58955;BME280;45815;52.334;5.024;2023-04-08T00:06:29;102346.66;;;8.58;100.00
58955;BME280;45815;52.334;5.024;2023-04-08T00:08:55;102341.94;;;8.51;100.00
58955;BME280;45815;52.334;5.024;2023-04-08T00:11:21;102347.75;;;8.45;100.00
58955;BME280;45815;52.334;5.024;2023-04-08T00:13:46;102337.44;;;8.32;100.00
58955;BME280;45815;52.334;5.024;2023-04-08T00:16:12;102345.94;;;8.28;100.00
58955;BME280;45815;52.334;5.024;2023-04-08T00:18:37;102345.69;;;8.23;100.00
58955;BME280;45815;52.334;5.024;2023-04-08T00:21:03;102353.22;;;8.17;100.00
58955;BME280;45815;52.334;5.024;2023-04-08T00:23:28;102343.16;;;8.09;100.00
58955;BME280;45815;52.334;5.024;2023-04-08T00:25:54;102340.22;;;8.02;100.00
58955;BME280;45815;52.334;5.024;2023-04-08T00:28:19;102355.66;;;7.98;100.00
58955;BME280;45815;52.334;5.024;2023-04-08T00:30:45;102352.06;;;7.96;100.00
58955;BME280;45815;52.334;5.024;2023-04-08T00:33:11;102351.75;;;7.90;100.00
58955;BME280;45815;52.334;5.024;2023-04-08T00:35:37;102353.22;;;7.85;100.00
58955;BME280;45815;52.334;5.024;2023-04-08T00:38:03;102353.94;;;7.82;100.00
58955;BME280;45815;52.334;5.024;2023-04-08T00:40:32;102353.84;;;7.80;100.00
58955;BME280;45815;52.334;5.024;2023-04-08T00:42:58;102353.69;;;7.77;100.00
58955;BME280;45815;52.334;5.024;2023-04-08T00:45:23;102345.25;;;7.67;100.00
58955;BME280;45815;52.334;5.024;2023-04-08T00:47:49;102363.72;;;7.70;100.00
58955;BME280;45815;52.334;5.024;2023-04-08T00:50:17;102353.00;;;7.65;100.00
58955;BME280;45815;52.334;5.024;2023-04-08T00:52:42;102361.66;;;7.64;100.00
58955;BME280;45815;52.334;5.024;2023-04-08T00:55:08;102353.47;;;7.58;100.00
58955;BME280;45815;52.334;5.024;2023-04-08T00:57:33;102357.81;;;7.57;100.00
58955;BME280;45815;52.334;5.024;2023-04-08T00:59:59;102350.59;;;7.53;100.00
58955;BME280;45815;52.334;5.024;2023-04-08T01:05:34;102345.75;;;7.28;100.00
58955;BME280;45815;52.334;5.024;2023-04-08T01:08:04;102355.72;;;7.35;100.00
58955;BME280;45815;52.334;5.024;2023-04-08T01:10:33;102356.34;;;7.31;100.00
58955;BME280;45815;52.334;5.024;2023-04-08T01:13:03;102363.31;;;7.31;100.00
58955;BME280;45815;52.334;5.024;2023-04-08T01:15:29;102361.31;;;7.27;100.00
58955;BME280;45815;52.334;5.024;2023-04-08T01:17:58;102358.53;;;7.24;100.00
58955;BME280;45815;52.334;5.024;2023-04-08T01:20:25;102344.59;;;7.08;100.00
58955;BME280;45815;52.334;5.024;2023-04-08T01:25:34;102366.22;;;7.06;100.00
58955;BME280;45815;52.334;5.024;2023-04-08T01:28:07;102366.94;;;7.03;100.00
58955;BME280;45815;52.334;5.024;2023-04-08T01:30:33;102362.44;;;7.01;100.00
58955;BME280;45815;52.334;5.024;2023-04-08T01:33:01;102367.81;;;7.04;100.00
58955;BME280;45815;52.334;5.024;2023-04-08T01:35:29;102369.66;;;7.05;100.00
58955;BME280;45815;52.334;5.024;2023-04-08T01:37:56;102369.72;;;7.06;100.00
58955;BME280;45815;52.334;5.024;2023-04-08T01:40:22;102372.75;;;7.14;100.00
58955;BME280;45815;52.334;5.024;2023-04-08T01:42:49;102375.72;;;7.20;100.00
58955;BME280;45815;52.334;5.024;2023-04-08T01:45:16;102381.84;;;7.21;100.00
58955;BME280;45815;52.334;5.024;2023-04-08T01:47:44;102384.72;;;7.25;100.00
58955;BME280;45815;52.334;5.024;2023-04-08T01:50:12;102386.34;;;7.23;100.00
58955;BME280;45815;52.334;5.024;2023-04-08T01:52:40;102388.16;;;7.24;100.00
58955;BME280;45815;52.334;5.024;2023-04-08T01:55:07;102385.38;;;7.21;100.00
58955;BME280;45815;52.334;5.024;2023-04-08T01:57:36;102389.69;;;7.21;100.00
58955;BME280;45815;52.334;5.024;2023-04-08T02:00:06;102391.41;;;7.20;100.00
58955;BME280;45815;52.334;5.024;2023-04-08T02:02:45;102394.84;;;7.19;100.00
58955;BME280;45815;52.334;5.024;2023-04-08T02:05:12;102396.47;;;7.17;100.00
58955;BME280;45815;52.334;5.024;2023-04-08T02:07:37;102372.25;;;7.05;100.00
58955;BME280;45815;52.334;5.024;2023-04-08T02:10:03;102385.75;;;7.12;100.00
58955;BME280;45815;52.334;5.024;2023-04-08T02:12:29;102392.69;;;7.12;100.00
58955;BME280;45815;52.334;5.024;2023-04-08T02:14:55;102383.88;;;7.10;100.00
58955;BME280;45815;52.334;5.024;2023-04-08T02:20:07;102395.94;;;7.08;100.00
58955;BME280;45815;52.334;5.024;2023-04-08T02:22:39;102393.38;;;7.09;100.00
58955;BME280;45815;52.334;5.024;2023-04-08T02:25:07;102392.06;;;6.86;100.00
58955;BME280;45815;52.334;5.024;2023-04-08T02:27:33;102391.16;;;7.01;100.00
58955;BME280;45815;52.334;5.024;2023-04-08T02:30:02;102392.94;;;7.02;100.00
58955;BME280;45815;52.334;5.024;2023-04-08T02:32:30;102391.06;;;6.99;100.00
58955;BME280;45815;52.334;5.024;2023-04-08T02:34:58;102388.72;;;6.89;100.00
58955;BME280;45815;52.334;5.024;2023-04-08T02:37:27;102396.63;;;6.90;100.00
58955;BME280;45815;52.334;5.024;2023-04-08T02:39:52;102390.69;;;6.78;100.00
58955;BME280;45815;52.334;5.024;2023-04-08T02:42:18;102411.84;;;6.83;100.00
58955;BME280;45815;52.334;5.024;2023-04-08T02:44:43;102404.75;;;6.80;100.00
58955;BME280;45815;52.334;5.024;2023-04-08T02:47:09;102409.22;;;6.83;100.00
58955;BME280;45815;52.334;5.024;2023-04-08T02:49:34;102418.94;;;6.85;100.00
58955;BME280;45815;52.334;5.024;2023-04-08T02:52:00;102420.50;;;6.82;100.00
58955;BME280;45815;52.334;5.024;2023-04-08T02:54:25;102420.50;;;6.82;100.00
58955;BME280;45815;52.334;5.024;2023-04-08T02:56:50;102421.50;;;6.84;100.00
58955;BME280;45815;52.334;5.024;2023-04-08T02:59:16;102422.47;;;6.86;100.00
58955;BME280;45815;52.334;5.024;2023-04-08T03:01:41;102424.16;;;6.85;100.00
58955;BME280;45815;52.334;5.024;2023-04-08T03:04:07;102421.66;;;6.87;100.00
58955;BME280;45815;52.334;5.024;2023-04-08T03:06:32;102418.16;;;6.86;100.00
58955;BME280;45815;52.334;5.024;2023-04-08T03:08:57;102422.00;;;6.78;100.00
58955;BME280;45815;52.334;5.024;2023-04-08T03:11:23;102423.56;;;6.74;100.00
58955;BME280;45815;52.334;5.024;2023-04-08T03:13:48;102425.06;;;6.71;100.00
58955;BME280;45815;52.334;5.024;2023-04-08T03:16:14;102428.28;;;6.67;100.00
58955;BME280;45815;52.334;5.024;2023-04-08T03:18:39;102425.78;;;6.68;100.00
58955;BME280;45815;52.334;5.024;2023-04-08T03:21:05;102433.44;;;6.80;100.00
58955;BME280;45815;52.334;5.024;2023-04-08T03:23:30;102430.84;;;6.80;100.00
58955;BME280;45815;52.334;5.024;2023-04-08T03:25:56;102437.16;;;6.84;100.00
58955;BME280;45815;52.334;5.024;2023-04-08T03:28:21;102422.91;;;6.79;100.00
58955;BME280;45815;52.334;5.024;2023-04-08T03:30:46;102437.50;;;6.75;100.00
58955;BME280;45815;52.334;5.024;2023-04-08T03:33:12;102431.28;;;6.73;100.00
58955;BME280;45815;52.334;5.024;2023-04-08T03:35:37;102437.50;;;6.75;100.00
58955;BME280;45815;52.334;5.024;2023-04-08T03:38:03;102442.88;;;6.78;100.00
58955;BME280;45815;52.334;5.024;2023-04-08T03:40:29;102440.56;;;6.83;100.00
58955;BME280;45815;52.334;5.024;2023-04-08T03:42:54;102437.84;;;6.81;100.00
58955;BME280;45815;52.334;5.024;2023-04-08T03:45:20;102441.56;;;6.85;100.00
58955;BME280;45815;52.334;5.024;2023-04-08T03:47:45;102441.66;;;6.86;100.00
58955;BME280;45815;52.334;5.024;2023-04-08T03:50:10;102426.44;;;6.79;100.00
58955;BME280;45815;52.334;5.024;2023-04-08T03:52:36;102444.34;;;6.88;100.00
58955;BME280;45815;52.334;5.024;2023-04-08T03:55:01;102451.28;;;6.87;100.00
58955;BME280;45815;52.334;5.024;2023-04-08T03:57:27;102443.44;;;6.87;100.00
58955;BME280;45815;52.334;5.024;2023-04-08T03:59:52;102446.94;;;6.88;100.00
58955;BME280;45815;52.334;5.024;2023-04-08T04:02:18;102444.34;;;6.88;100.00
58955;BME280;45815;52.334;5.024;2023-04-08T04:04:43;102457.47;;;6.89;100.00
58955;BME280;45815;52.334;5.024;2023-04-08T04:07:08;102452.44;;;6.92;100.00
58955;BME280;45815;52.334;5.024;2023-04-08T04:09:34;102452.44;;;6.92;100.00
58955;BME280;45815;52.334;5.024;2023-04-08T04:11:59;102452.44;;;6.92;100.00
58955;BME280;45815;52.334;5.024;2023-04-08T04:14:25;102451.53;;;6.92;100.00
58955;BME280;45815;52.334;5.024;2023-04-08T04:16:50;102459.47;;;6.93;100.00
58955;BME280;45815;52.334;5.024;2023-04-08T04:19:16;102461.25;;;6.94;100.00
58955;BME280;45815;52.334;5.024;2023-04-08T04:21:42;102465.75;;;6.97;100.00
58955;BME280;45815;52.334;5.024;2023-04-08T04:24:08;102454.25;;;6.93;100.00
58955;BME280;45815;52.334;5.024;2023-04-08T04:26:33;102462.88;;;6.92;100.00
58955;BME280;45815;52.334;5.024;2023-04-08T04:28:58;102464.31;;;6.87;100.00
58955;BME280;45815;52.334;5.024;2023-04-08T04:31:24;102462.03;;;6.79;100.00
58955;BME280;45815;52.334;5.024;2023-04-08T04:33:53;102467.72;;;6.71;100.00
58955;BME280;45815;52.334;5.024;2023-04-08T04:36:18;102469.13;;;6.66;100.00
58955;BME280;45815;52.334;5.024;2023-04-08T04:38:44;102460.69;;;6.55;100.00
58955;BME280;45815;52.334;5.024;2023-04-08T04:41:10;102463.91;;;6.51;100.00
58955;BME280;45815;52.334;5.024;2023-04-08T04:43:36;102471.31;;;6.45;100.00
58955;BME280;45815;52.334;5.024;2023-04-08T04:46:01;102478.78;;;6.39;100.00
58955;BME280;45815;52.334;5.024;2023-04-08T04:48:31;102453.34;;;6.22;100.00
58955;BME280;45815;52.334;5.024;2023-04-08T04:50:58;102473.59;;;6.26;100.00
58955;BME280;45815;52.334;5.024;2023-04-08T04:53:24;102471.50;;;6.20;100.00
58955;BME280;45815;52.334;5.024;2023-04-08T04:55:50;102468.59;;;6.16;100.00
58955;BME280;45815;52.334;5.024;2023-04-08T04:58:16;102470.91;;;6.11;100.00
58955;BME280;45815;52.334;5.024;2023-04-08T05:00:41;102481.88;;;6.05;100.00
58955;BME280;45815;52.334;5.024;2023-04-08T05:03:07;102481.47;;;5.99;100.00
58955;BME280;45815;52.334;5.024;2023-04-08T05:05:32;102488.19;;;5.96;100.00
58955;BME280;45815;52.334;5.024;2023-04-08T05:07:57;102467.31;;;5.82;100.00
58955;BME280;45815;52.334;5.024;2023-04-08T05:10:23;102479.75;;;5.86;100.00
58955;BME280;45815;52.334;5.024;2023-04-08T05:12:48;102479.56;;;5.83;100.00
58955;BME280;45815;52.334;5.024;2023-04-08T05:15:14;102486.47;;;5.83;100.00
58955;BME280;45815;52.334;5.024;2023-04-08T05:17:39;102487.28;;;5.82;100.00
58955;BME280;45815;52.334;5.024;2023-04-08T05:20:05;102484.97;;;5.86;100.00
58955;BME280;45815;52.334;5.024;2023-04-08T05:22:31;102496.22;;;5.85;100.00
58955;BME280;45815;52.334;5.024;2023-04-08T05:24:56;102492.47;;;5.82;100.00
58955;BME280;45815;52.334;5.024;2023-04-08T05:27:22;102500.31;;;5.82;100.00
58955;BME280;45815;52.334;5.024;2023-04-08T05:29:47;102501.72;;;5.77;100.00
58955;BME280;45815;52.334;5.024;2023-04-08T05:32:13;102501.59;;;5.75;100.00
58955;BME280;45815;52.334;5.024;2023-04-08T05:34:38;102499.69;;;5.72;100.00
58955;BME280;45815;52.334;5.024;2023-04-08T05:37:03;102499.59;;;5.71;100.00
58955;BME280;45815;52.334;5.024;2023-04-08T05:39:29;102502.31;;;5.72;100.00
58955;BME280;45815;52.334;5.024;2023-04-08T05:41:54;102491.97;;;5.61;100.00
58955;BME280;45815;52.334;5.024;2023-04-08T05:44:20;102517.75;;;5.69;100.00
58955;BME280;45815;52.334;5.024;2023-04-08T05:46:45;102514.13;;;5.67;100.00
58955;BME280;45815;52.334;5.024;2023-04-08T05:49:11;102524.56;;;5.67;100.00
58955;BME280;45815;52.334;5.024;2023-04-08T05:51:37;102506.53;;;5.57;100.00
58955;BME280;45815;52.334;5.024;2023-04-08T05:54:03;102511.81;;;5.59;100.00
58955;BME280;45815;52.334;5.024;2023-04-08T05:56:28;102533.56;;;5.72;100.00
58955;BME280;45815;52.334;5.024;2023-04-08T05:58:56;102529.47;;;5.76;100.00
58955;BME280;45815;52.334;5.024;2023-04-08T06:01:22;102525.16;;;5.77;100.00
58955;BME280;45815;52.334;5.024;2023-04-08T06:03:47;102535.97;;;5.83;100.00
58955;BME280;45815;52.334;5.024;2023-04-08T06:06:12;102526.75;;;5.75;100.00
58955;BME280;45815;52.334;5.024;2023-04-08T06:08:38;102550.13;;;5.86;100.00
58955;BME280;45815;52.334;5.024;2023-04-08T06:11:03;102544.31;;;5.90;100.00
58955;BME280;45815;52.334;5.024;2023-04-08T06:13:30;102541.00;;;5.93;100.00
58955;BME280;45815;52.334;5.024;2023-04-08T06:15:55;102549.03;;;5.96;100.00
58955;BME280;45815;52.334;5.024;2023-04-08T06:18:21;102548.16;;;5.96;100.00
58955;BME280;45815;52.334;5.024;2023-04-08T06:20:46;102550.88;;;5.97;100.00
58955;BME280;45815;52.334;5.024;2023-04-08T06:23:12;102555.44;;;6.01;100.00
58955;BME280;45815;52.334;5.024;2023-04-08T06:25:37;102561.47;;;6.00;100.00
58955;BME280;45815;52.334;5.024;2023-04-08T06:28:03;102560.78;;;6.03;100.00
58955;BME280;45815;52.334;5.024;2023-04-08T06:30:28;102561.66;;;6.03;100.00
58955;BME280;45815;52.334;5.024;2023-04-08T06:32:53;102569.59;;;6.05;100.00
58955;BME280;45815;52.334;5.024;2023-04-08T06:35:19;102568.59;;;6.03;100.00
58955;BME280;45815;52.334;5.024;2023-04-08T06:37:45;102569.09;;;6.10;100.00
58955;BME280;45815;52.334;5.024;2023-04-08T06:40:10;102568.19;;;6.10;100.00
58955;BME280;45815;52.334;5.024;2023-04-08T06:42:36;102571.78;;;6.12;100.00
58955;BME280;45815;52.334;5.024;2023-04-08T06:45:15;102574.69;;;6.17;100.00
58955;BME280;45815;52.334;5.024;2023-04-08T06:47:40;102566.78;;;6.15;100.00
58955;BME280;45815;52.334;5.024;2023-04-08T06:50:06;102578.41;;;6.20;100.00
58955;BME280;45815;52.334;5.024;2023-04-08T06:52:31;102574.28;;;6.24;100.00
58955;BME280;45815;52.334;5.024;2023-04-08T06:54:57;102579.09;;;6.31;100.00
58955;BME280;45815;52.334;5.024;2023-04-08T06:57:22;102579.69;;;6.40;100.00
58955;BME280;45815;52.334;5.024;2023-04-08T06:59:47;102582.78;;;6.48;100.00
58955;BME280;45815;52.334;5.024;2023-04-08T07:02:13;102583.19;;;6.54;100.00
58955;BME280;45815;52.334;5.024;2023-04-08T07:04:39;102585.97;;;6.57;100.00
58955;BME280;45815;52.334;5.024;2023-04-08T07:07:05;102592.38;;;6.62;100.00
58955;BME280;45815;52.334;5.024;2023-04-08T07:09:31;102592.78;;;6.68;100.00
58955;BME280;45815;52.334;5.024;2023-04-08T07:11:56;102603.69;;;6.76;100.00
58955;BME280;45815;52.334;5.024;2023-04-08T07:14:22;102597.84;;;6.80;100.00
58955;BME280;45815;52.334;5.024;2023-04-08T07:16:47;102602.47;;;6.84;100.00
58955;BME280;45815;52.334;5.024;2023-04-08T07:19:13;102608.88;;;6.89;100.00
58955;BME280;45815;52.334;5.024;2023-04-08T07:21:38;102604.94;;;6.96;100.00
58955;BME280;45815;52.334;5.024;2023-04-08T07:24:04;102605.41;;;7.04;100.00
58955;BME280;45815;52.334;5.024;2023-04-08T07:26:29;102612.72;;;7.09;100.00
58955;BME280;45815;52.334;5.024;2023-04-08T07:28:54;102613.81;;;7.13;100.00
58955;BME280;45815;52.334;5.024;2023-04-08T07:31:20;102619.22;;;7.16;100.00
58955;BME280;45815;52.334;5.024;2023-04-08T07:33:45;102616.81;;;7.19;100.00
58955;BME280;45815;52.334;5.024;2023-04-08T07:36:12;102621.59;;;7.26;100.00
58955;BME280;45815;52.334;5.024;2023-04-08T07:38:38;102623.78;;;7.33;100.00
58955;BME280;45815;52.334;5.024;2023-04-08T07:41:03;102617.66;;;7.48;100.00
58955;BME280;45815;52.334;5.024;2023-04-08T07:43:32;102630.19;;;7.53;100.00
58955;BME280;45815;52.334;5.024;2023-04-08T07:46:05;102629.56;;;7.57;100.00
58955;BME280;45815;52.334;5.024;2023-04-08T07:48:31;102635.19;;;7.64;100.00
58955;BME280;45815;52.334;5.024;2023-04-08T07:50:57;102617.50;;;7.59;100.00
58955;BME280;45815;52.334;5.024;2023-04-08T07:53:22;102622.72;;;7.74;100.00
58955;BME280;45815;52.334;5.024;2023-04-08T07:55:49;102627.78;;;7.86;100.00
58955;BME280;45815;52.334;5.024;2023-04-08T07:58:14;102616.59;;;7.89;100.00
58955;BME280;45815;52.334;5.024;2023-04-08T08:00:40;102624.50;;;8.05;100.00
58955;BME280;45815;52.334;5.024;2023-04-08T08:03:06;102620.03;;;8.17;100.00
58955;BME280;45815;52.334;5.024;2023-04-08T08:05:31;102620.97;;;8.34;100.00
58955;BME280;45815;52.334;5.024;2023-04-08T08:07:56;102635.88;;;8.50;100.00
58955;BME280;45815;52.334;5.024;2023-04-08T08:10:22;102633.03;;;8.62;100.00
58955;BME280;45815;52.334;5.024;2023-04-08T08:12:47;102628.13;;;8.68;100.00
58955;BME280;45815;52.334;5.024;2023-04-08T08:15:12;102634.13;;;8.82;100.00
58955;BME280;45815;52.334;5.024;2023-04-08T08:17:39;102642.00;;;8.98;100.00
58955;BME280;45815;52.334;5.024;2023-04-08T08:20:04;102646.09;;;9.09;100.00
58955;BME280;45815;52.334;5.024;2023-04-08T08:22:30;102642.41;;;9.22;100.00
58955;BME280;45815;52.334;5.024;2023-04-08T08:24:56;102648.22;;;9.33;100.00
58955;BME280;45815;52.334;5.024;2023-04-08T08:27:22;102644.94;;;9.54;100.00
58955;BME280;45815;52.334;5.024;2023-04-08T08:29:47;102639.03;;;9.74;100.00
58955;BME280;45815;52.334;5.024;2023-04-08T08:32:13;102642.78;;;9.97;100.00
58955;BME280;45815;52.334;5.024;2023-04-08T08:34:38;102639.34;;;10.32;100.00
58955;BME280;45815;52.334;5.024;2023-04-08T08:37:03;102637.91;;;10.57;100.00
58955;BME280;45815;52.334;5.024;2023-04-08T08:39:29;102643.13;;;10.75;100.00
58955;BME280;45815;52.334;5.024;2023-04-08T08:41:55;102648.81;;;10.84;100.00
58955;BME280;45815;52.334;5.024;2023-04-08T08:44:21;102658.47;;;11.03;100.00
58955;BME280;45815;52.334;5.024;2023-04-08T08:46:47;102642.16;;;11.10;100.00
58955;BME280;45815;52.334;5.024;2023-04-08T08:49:13;102650.34;;;11.37;100.00
58955;BME280;45815;52.334;5.024;2023-04-08T08:51:39;102647.66;;;11.55;100.00
58955;BME280;45815;52.334;5.024;2023-04-08T08:54:06;102625.94;;;11.59;100.00
58955;BME280;45815;52.334;5.024;2023-04-08T08:56:32;102644.56;;;11.85;100.00
58955;BME280;45815;52.334;5.024;2023-04-08T08:58:58;102646.09;;;11.99;100.00
58955;BME280;45815;52.334;5.024;2023-04-08T09:04:13;102644.91;;;12.35;100.00
58955;BME280;45815;52.334;5.024;2023-04-08T09:06:40;102647.31;;;12.51;100.00
58955;BME280;45815;52.334;5.024;2023-04-08T09:09:06;102656.00;;;12.71;100.00
58955;BME280;45815;52.334;5.024;2023-04-08T09:11:41;102647.38;;;12.75;100.00
58955;BME280;45815;52.334;5.024;2023-04-08T09:14:20;102652.13;;;12.84;100.00
58955;BME280;45815;52.334;5.024;2023-04-08T09:16:46;102641.84;;;12.90;100.00
58955;BME280;45815;52.334;5.024;2023-04-08T09:19:11;102652.94;;;13.05;100.00
58955;BME280;45815;52.334;5.024;2023-04-08T09:21:38;102659.59;;;13.18;100.00
58955;BME280;45815;52.334;5.024;2023-04-08T09:24:06;102647.28;;;13.19;100.00
58955;BME280;45815;52.334;5.024;2023-04-08T09:26:31;102668.44;;;13.43;100.00
58955;BME280;45815;52.334;5.024;2023-04-08T09:29:07;102667.25;;;13.59;100.00
58955;BME280;45815;52.334;5.024;2023-04-08T09:31:35;102663.53;;;13.78;100.00
58955;BME280;45815;52.334;5.024;2023-04-08T09:34:13;102673.38;;;13.83;100.00
58955;BME280;45815;52.334;5.024;2023-04-08T09:36:39;102664.81;;;13.90;100.00
58955;BME280;45815;52.334;5.024;2023-04-08T09:39:05;102670.72;;;14.07;100.00
58955;BME280;45815;52.334;5.024;2023-04-08T09:41:36;102663.09;;;14.17;100.00
58955;BME280;45815;52.334;5.024;2023-04-08T09:44:03;102664.31;;;14.26;100.00
58955;BME280;45815;52.334;5.024;2023-04-08T09:46:44;102668.72;;;14.27;100.00
58955;BME280;45815;52.334;5.024;2023-04-08T09:49:17;102664.69;;;14.39;100.00
58955;BME280;45815;52.334;5.024;2023-04-08T09:51:53;102669.19;;;14.41;100.00
58955;BME280;45815;52.334;5.024;2023-04-08T09:54:30;102673.34;;;14.60;100.00
58955;BME280;45815;52.334;5.024;2023-04-08T09:57:04;102680.66;;;14.69;100.00
58955;BME280;45815;52.334;5.024;2023-04-08T09:59:35;102678.97;;;14.71;100.00
58955;BME280;45815;52.334;5.024;2023-04-08T10:02:06;102674.13;;;14.57;100.00
58955;BME280;45815;52.334;5.024;2023-04-08T10:04:36;102671.59;;;14.61;100.00
58955;BME280;45815;52.334;5.024;2023-04-08T10:07:04;102674.44;;;14.67;100.00
58955;BME280;45815;52.334;5.024;2023-04-08T10:09:31;102664.22;;;14.77;100.00
58955;BME280;45815;52.334;5.024;2023-04-08T10:11:57;102670.66;;;14.87;100.00
58955;BME280;45815;52.334;5.024;2023-04-08T10:14:23;102665.38;;;14.87;100.00
58955;BME280;45815;52.334;5.024;2023-04-08T10:17:24;102668.97;;;14.89;100.00
58955;BME280;45815;52.334;5.024;2023-04-08T10:19:51;102665.94;;;15.06;100.00
58955;BME280;45815;52.334;5.024;2023-04-08T10:27:43;102662.63;;;15.45;100.00
58955;BME280;45815;52.334;5.024;2023-04-08T10:30:41;102663.06;;;15.28;100.00
58955;BME280;45815;52.334;5.024;2023-04-08T10:33:20;102660.81;;;15.42;100.00
58955;BME280;45815;52.334;5.024;2023-04-08T10:36:12;102661.72;;;15.12;100.00
58955;BME280;45815;52.334;5.024;2023-04-08T10:38:40;102660.78;;;15.40;100.00
58955;BME280;45815;52.334;5.024;2023-04-08T10:41:09;102657.03;;;15.64;100.00
58955;BME280;45815;52.334;5.024;2023-04-08T10:43:35;102651.91;;;15.70;100.00
58955;BME280;45815;52.334;5.024;2023-04-08T10:46:02;102655.75;;;15.81;100.00
58955;BME280;45815;52.334;5.024;2023-04-08T10:48:27;102653.59;;;15.68;100.00
58955;BME280;45815;52.334;5.024;2023-04-08T10:51:00;102649.63;;;15.84;100.00
58955;BME280;45815;52.334;5.024;2023-04-08T10:53:31;102649.53;;;16.14;100.00
58955;BME280;45815;52.334;5.024;2023-04-08T10:56:10;102651.63;;;16.28;100.00
58955;BME280;45815;52.334;5.024;2023-04-08T10:58:52;102641.41;;;16.07;100.00
58955;BME280;45815;52.334;5.024;2023-04-08T11:01:18;102643.56;;;16.23;100.00
58955;BME280;45815;52.334;5.024;2023-04-08T11:03:44;102642.88;;;16.32;100.00
58955;BME280;45815;52.334;5.024;2023-04-08T11:06:10;102628.72;;;16.30;100.00
58955;BME280;45815;52.334;5.024;2023-04-08T11:08:35;102652.13;;;16.13;100.00
58955;BME280;45815;52.334;5.024;2023-04-08T11:11:02;102633.63;;;16.14;100.00
58955;BME280;45815;52.334;5.024;2023-04-08T11:13:28;102647.06;;;16.22;100.00
58955;BME280;45815;52.334;5.024;2023-04-08T11:15:56;102642.19;;;16.39;100.00
58955;BME280;45815;52.334;5.024;2023-04-08T11:18:22;102651.41;;;16.56;100.00
58955;BME280;45815;52.334;5.024;2023-04-08T11:20:52;102652.56;;;16.67;100.00
58955;BME280;45815;52.334;5.024;2023-04-08T11:23:18;102656.47;;;16.82;100.00
58955;BME280;45815;52.334;5.024;2023-04-08T11:25:44;102652.91;;;16.81;100.00
58955;BME280;45815;52.334;5.024;2023-04-08T11:28:11;102660.09;;;16.87;100.00
58955;BME280;45815;52.334;5.024;2023-04-08T11:30:41;102656.66;;;16.91;100.00
58955;BME280;45815;52.334;5.024;2023-04-08T11:33:07;102658.75;;;17.06;100.00
58955;BME280;45815;52.334;5.024;2023-04-08T11:35:32;102658.91;;;17.14;100.00
58955;BME280;45815;52.334;5.024;2023-04-08T11:37:58;102661.50;;;17.11;100.00
58955;BME280;45815;52.334;5.024;2023-04-08T11:40:24;102668.81;;;17.21;100.00
58955;BME280;45815;52.334;5.024;2023-04-08T11:42:51;102661.97;;;17.34;100.00
58955;BME280;45815;52.334;5.024;2023-04-08T11:45:19;102666.50;;;17.39;100.00
58955;BME280;45815;52.334;5.024;2023-04-08T11:47:46;102668.31;;;17.40;100.00
58955;BME280;45815;52.334;5.024;2023-04-08T11:50:21;102671.16;;;17.51;100.00
58955;BME280;45815;52.334;5.024;2023-04-08T11:52:48;102659.97;;;17.66;100.00
58955;BME280;45815;52.334;5.024;2023-04-08T11:55:28;102663.84;;;17.38;100.00
58955;BME280;45815;52.334;5.024;2023-04-08T11:57:55;102671.66;;;17.32;100.00
58955;BME280;45815;52.334;5.024;2023-04-08T12:00:22;102673.47;;;17.34;100.00
58955;BME280;45815;52.334;5.024;2023-04-08T12:02:48;102673.56;;;17.37;100.00
58955;BME280;45815;52.334;5.024;2023-04-08T12:05:16;102657.69;;;17.40;100.00
58955;BME280;45815;52.334;5.024;2023-04-08T12:07:42;102665.78;;;17.48;100.00
58955;BME280;45815;52.334;5.024;2023-04-08T12:10:10;102658.94;;;17.59;100.00
58955;BME280;45815;52.334;5.024;2023-04-08T12:12:37;102661.34;;;17.92;100.00
58955;BME280;45815;52.334;5.024;2023-04-08T12:15:02;102659.00;;;18.11;100.00
58955;BME280;45815;52.334;5.024;2023-04-08T12:17:28;102659.25;;;18.25;100.00
58955;BME280;45815;52.334;5.024;2023-04-08T12:19:53;102656.88;;;18.43;100.00
58955;BME280;45815;52.334;5.024;2023-04-08T12:22:19;102651.84;;;18.62;100.00
58955;BME280;45815;52.334;5.024;2023-04-08T12:24:45;102647.78;;;18.87;98.95
58955;BME280;45815;52.334;5.024;2023-04-08T12:27:11;102656.81;;;18.98;95.94
58955;BME280;45815;52.334;5.024;2023-04-08T12:29:37;102658.56;;;18.96;94.71
58955;BME280;45815;52.334;5.024;2023-04-08T12:32:02;102664.94;;;19.09;93.30
58955;BME280;45815;52.334;5.024;2023-04-08T12:34:30;102662.25;;;19.07;91.72
58955;BME280;45815;52.334;5.024;2023-04-08T12:36:55;102662.56;;;19.32;91.83
58955;BME280;45815;52.334;5.024;2023-04-08T12:39:21;102653.88;;;19.48;89.30
58955;BME280;45815;52.334;5.024;2023-04-08T12:41:46;102655.56;;;19.40;88.90
58955;BME280;45815;52.334;5.024;2023-04-08T12:44:12;102653.00;;;19.52;89.06
58955;BME280;45815;52.334;5.024;2023-04-08T12:46:37;102658.63;;;19.75;85.94
58955;BME280;45815;52.334;5.024;2023-04-08T12:49:02;102652.44;;;19.78;84.01
58955;BME280;45815;52.334;5.024;2023-04-08T12:51:28;102652.63;;;19.98;84.18
58955;BME280;45815;52.334;5.024;2023-04-08T12:53:53;102657.97;;;20.01;84.60
58955;BME280;45815;52.334;5.024;2023-04-08T12:56:19;102651.91;;;20.16;83.32
58955;BME280;45815;52.334;5.024;2023-04-08T12:58:45;102647.63;;;20.39;83.40
58955;BME280;45815;52.334;5.024;2023-04-08T13:01:11;102652.00;;;20.28;79.87
58955;BME280;45815;52.334;5.024;2023-04-08T13:03:36;102659.09;;;20.28;75.04